Portada
METAR-TAF:

METAR-TAF

Aeroports :

Bangkok, Tailàndia

latitud: 13-54-45N, longitud: 100-36-24E, altitud: 4 m

Observació

L'informe es va fer fa 22 minuts, a les 16:00 UTC
Vent 5 kt del Est
Temperatura 22°C
Humitat 65%
Pressió 1016 hPa
Visibilitat: 9000 m

METAR: VTBD 091600Z 08005KT 9000 NSC 22/15 Q1016 NOSIG

Hora: 23:22 (16:22 UTC)

Pronòstic

L'informe es va fer fa 5 hores i 22 minuts, a les 11:00 UTC
Pronòstic vàlid del 09 a les 12 UTC al 10 a les 18 UTC
Vent 5 kt del Est
Visibilitat: 9000 m
Escasses núvols a una alçada de 4000 ft
Evolucionant progressivament
l' 09 a les 22 UTC al 09 a les 24 UTC
Vent 5 kt del Nord
Visibilitat: 3000 m
Escasses núvols a una alçada de 2500 ft
boirina
Evolucionant progressivament
l' 10 a les 02 UTC al 10 a les 04 UTC
Vent 8 kt del Est
Visibilitat 10 km o més

TAF: VTBD 091100Z 0912/1018 08005KT 9000 FEW040 BECMG 0922/0924 01005KT 3000 BR FEW025 BECMG 1002/1004 08008KT 9999 NSW

Observacions i pronòstics meteorològics de més de 4000 aeroports (METAR i TAF).

Les estacions disponibles són els punts grocs i vermells al mapa.

Posi el ratolí al punt desitjat per veure el nom de l'estació.

Feu clic per veure les observacions i els pronòstics meteorològics.

Per canviar el mapa: feu clic els botons verds amb una creu de color negre per apropar; al botó verd amb un guió per allunyar la imatge; o en les fletxes verdes per a mapes adjacents.


METAR-TAF: